Time;durP1;ratioP1;P1;durP2;ratioP2;P2;SDS_P1;SDS_P2;PMS_P1;PMS_P2;Temp;Humidity;BMP_temperature;BMP_pressure;BME280_temperature;BME280_humidity;BME280_pressure;Samples;Min_cycle;Max_cycle;Signal;HPM_P1;HPM_P2
2022/01/22 00:01:54;;;;;;;;;;;;;;;7.74;65.53;103336.47;7352664;19;20006;-63
2022/01/22 00:04:19;;;;;;;;;;;;;;;7.75;65.71;103343.44;7363222;19;19919;-62
2022/01/22 00:06:44;;;;;;;;;;;;;;;7.76;65.15;103334.84;7359858;19;19961;-63
2022/01/22 00:09:11;;;;;;;;;;;;;;;7.77;65.20;103341.78;7361679;19;19922;-62
2022/01/22 00:11:40;;;;;;;;;;;;;;;7.77;65.55;103347.00;7361293;19;20568;-63
2022/01/22 00:14:24;;;;;;;;;;;;;;;7.78;65.40;103348.75;7365075;19;19927;-62
2022/01/22 00:16:59;;;;;;;;;;;;;;;7.80;65.67;103344.47;7369120;19;19910;-62
2022/01/22 00:19:25;;;;;;;;;;;;;;;7.80;65.74;103349.66;7363964;19;19934;-63
2022/01/22 00:21:51;;;;;;;;;;;;;;;7.81;65.40;103338.47;7362240;19;20612;-63
2022/01/22 00:24:17;;;;;;;;;;;;;;;7.82;65.50;103345.41;7356094;19;20240;-63
2022/01/22 00:26:42;;;;;;;;;;;;;;;7.83;65.26;103331.56;7355735;19;19910;-62
2022/01/22 00:29:08;;;;;;;;;;;;;;;7.83;65.50;103331.56;7355176;19;20471;-63
2022/01/22 00:31:33;;;;;;;;;;;;;;;7.84;65.50;103333.34;7356976;19;19941;-62
2022/01/22 00:33:58;;;;;;;;;;;;;;;7.86;65.57;103344.69;7356757;19;20018;-62
2022/01/22 00:36:24;;;;;;;;;;;;;;;7.86;65.66;103339.47;7350883;19;19925;-63
2022/01/22 00:38:49;;;;;;;;;;;;;;;7.87;65.82;103338.63;7362972;19;19931;-62
2022/01/22 00:41:14;;;;;;;;;;;;;;;7.87;65.33;103338.63;7365080;19;19945;-63
2022/01/22 00:43:40;;;;;;;;;;;;;;;7.88;65.60;103340.41;7368131;19;19982;-63
2022/01/22 00:46:05;;;;;;;;;;;;;;;7.88;65.63;103343.00;7361747;19;19939;-62
2022/01/22 00:48:30;;;;;;;;;;;;;;;7.89;65.98;103343.88;7363553;19;19927;-62
2022/01/22 00:50:57;;;;;;;;;;;;;;;7.90;65.68;103349.13;7365499;19;19915;-62
2022/01/22 00:53:25;;;;;;;;;;;;;;;7.62;65.47;103294.50;7364514;19;20260;-62
2022/01/22 00:55:51;;;;;;;;;;;;;;;7.92;65.54;103331.84;7363310;19;19930;-63
2022/01/22 00:58:16;;;;;;;;;;;;;;;7.93;65.84;103328.41;7368727;19;19914;-63
2022/01/22 01:00:41;;;;;;;;;;;;;;;7.93;65.70;103333.63;7362956;19;19915;-62
2022/01/22 01:03:07;;;;;;;;;;;;;;;7.93;65.73;103333.63;7372709;19;19926;-63
2022/01/22 01:05:32;;;;;;;;;;;;;;;7.95;65.98;103334.53;7370148;19;19919;-62
2022/01/22 01:07:57;;;;;;;;;;;;;;;7.95;65.83;103334.53;7375260;19;19933;-63
2022/01/22 01:10:23;;;;;;;;;;;;;;;7.95;65.94;103329.31;7371742;19;19945;-63
2022/01/22 01:12:49;;;;;;;;;;;;;;;7.95;65.46;103331.94;7368450;19;19944;-63
2022/01/22 01:34:20;;;;;;;;;;;;;;;7.94;66.11;103309.34;1408045;19;10021094;-62
2022/01/22 01:36:47;;;;;;;;;;;;;;;7.96;66.12;103312.91;7358202;19;19923;-62
2022/01/22 01:39:17;;;;;;;;;;;;;;;7.96;66.13;103312.91;7363401;19;20358;-62
2022/01/22 01:44:12;;;;;;;;;;;;;;;7.96;66.01;103309.44;7365879;19;19987;-62
2022/01/22 01:46:45;;;;;;;;;;;;;;;7.96;66.13;103302.50;7367249;19;19987;-62
2022/01/22 01:49:11;;;;;;;;;;;;;;;7.95;66.20;103308.50;7359831;19;19922;-63
2022/01/22 01:51:36;;;;;;;;;;;;;;;7.95;66.18;103308.50;7366462;19;19915;-63
2022/01/22 01:54:12;;;;;;;;;;;;;;;7.96;66.19;103302.50;7367283;19;20379;-62
2022/01/22 01:59:21;;;;;;;;;;;;;;;7.96;66.12;103302.50;7368941;19;19929;-62
2022/01/22 02:01:46;;;;;;;;;;;;;;;7.95;66.07;103300.72;7370593;19;20693;-63
2022/01/22 02:04:13;;;;;;;;;;;;;;;7.96;65.90;103301.63;7363856;19;19922;-63
2022/01/22 02:06:38;;;;;;;;;;;;;;;7.95;65.97;103290.31;7362108;19;20013;-63
2022/01/22 02:09:09;;;;;;;;;;;;;;;7.97;66.03;103299.06;7363700;19;19942;-61
2022/01/22 02:11:35;;;;;;;;;;;;;;;7.96;66.20;103301.63;7362207;19;20343;-62
2022/01/22 02:23:30;;;;;;;;;;;;;;;7.95;66.15;103290.31;7358923;19;19915;-63
2022/01/22 02:25:08;;;;;;;;;;;;;;;7.92;66.24;103295.44;7363776;19;20711;-62
2022/01/22 02:27:34;;;;;;;;;;;;;;;7.91;66.09;103298.88;7364847;19;19949;-62
2022/01/22 02:29:59;;;;;;;;;;;;;;;7.91;66.34;103301.47;7360891;19;19918;-62
2022/01/22 02:35:20;;;;;;;;;;;;;;;7.89;66.26;103284.91;7364867;19;19939;-62
2022/01/22 02:37:52;;;;;;;;;;;;;;;7.89;66.55;103292.72;7362271;19;19926;-62
2022/01/22 02:40:25;;;;;;;;;;;;;;;7.89;66.32;103291.84;7365074;19;20006;-63
2022/01/22 02:42:50;;;;;;;;;;;;;;;7.88;66.31;103292.69;7363788;19;19911;-63
2022/01/22 02:45:20;;;;;;;;;;;;;;;7.87;66.16;103286.63;7363185;19;19955;-63
2022/01/22 02:47:45;;;;;;;;;;;;;;;7.85;66.52;103288.25;7372354;19;20367;-63
2022/01/22 02:50:11;;;;;;;;;;;;;;;7.84;66.54;103288.22;7373588;19;19919;-62
2022/01/22 02:52:36;;;;;;;;;;;;;;;7.85;66.57;103276.97;7367480;19;19914;-62
2022/01/22 02:55:03;;;;;;;;;;;;;;;7.82;66.29;103284.72;7371794;19;20092;-63
2022/01/22 02:57:32;;;;;;;;;;;;;;;7.80;66.31;103282.03;7360807;19;19915;-63
2022/01/22 02:59:58;;;;;;;;;;;;;;;7.77;66.54;103281.97;7357339;19;20495;-62
2022/01/22 03:02:24;;;;;;;;;;;;;;;7.75;66.33;103283.63;7368324;19;19922;-62
2022/01/22 03:04:49;;;;;;;;;;;;;;;7.73;66.42;103274.91;7361744;19;19915;-62
2022/01/22 03:07:14;;;;;;;;;;;;;;;7.70;66.60;103274.78;7365288;19;19922;-62
2022/01/22 03:09:42;;;;;;;;;;;;;;;7.68;66.75;103268.69;7365152;19;20254;-63
2022/01/22 03:27:56;;;;;;;;;;;;;;;7.57;66.94;103270.06;7360946;19;19926;-62
2022/01/22 03:30:21;;;;;;;;;;;;;;;7.53;67.12;103261.28;7362245;19;20272;-63
2022/01/22 03:32:51;;;;;;;;;;;;;;;7.51;67.07;103261.25;7366901;19;19923;-63
2022/01/22 03:37:45;;;;;;;;;;;;;;;7.49;66.99;103257.69;7371620;19;19921;-63
2022/01/22 03:40:12;;;;;;;;;;;;;;;7.48;67.06;103263.75;7367474;19;20023;-63
2022/01/22 03:42:37;;;;;;;;;;;;;;;7.38;67.40;103240.91;5178953;19;10000516;-62
2022/01/22 03:45:03;;;;;;;;;;;;;;;7.48;67.02;103250.75;3248289;19;10001856;-63
2022/01/22 03:47:28;;;;;;;;;;;;;;;7.48;67.39;103250.75;7365130;19;19918;-63
2022/01/22 03:49:53;;;;;;;;;;;;;;;7.47;67.29;103238.59;7360983;19;20547;-63
2022/01/22 03:52:19;;;;;;;;;;;;;;;7.48;67.66;103235.13;7364202;19;19958;-62
2022/01/22 03:54:44;;;;;;;;;;;;;;;7.48;67.48;103244.66;7359322;19;19925;-63
2022/01/22 03:57:10;;;;;;;;;;;;;;;7.47;67.30;103237.72;7362224;19;19926;-62
2022/01/22 03:59:35;;;;;;;;;;;;;;;7.49;67.44;103236.03;7366752;19;19936;-62
2022/01/22 04:03:05;;;;;;;;;;;;;;;7.48;67.28;103240.34;7359303;19;19929;-62
2022/01/22 04:04:53;;;;;;;;;;;;;;;7.47;67.69;103238.59;7361084;19;20716;-63
2022/01/22 04:10:05;;;;;;;;;;;;;;;7.45;67.17;103236.75;7363318;19;19925;-63
2022/01/22 04:15:04;;;;;;;;;;;;;;;7.42;67.69;103234.97;7366210;19;19919;-63
2022/01/22 04:25:23;;;;;;;;;;;;;;;7.38;67.95;103225.28;7367116;19;19914;-62
2022/01/22 04:27:48;;;;;;;;;;;;;;;7.37;67.62;103225.25;7364015;19;19939;-62
2022/01/22 04:30:14;;;;;;;;;;;;;;;7.37;68.06;103226.13;7365426;19;19929;-62
2022/01/22 04:32:39;;;;;;;;;;;;;;;7.37;68.16;103231.34;7363212;19;19964;-62
2022/01/22 04:35:04;;;;;;;;;;;;;;;7.38;68.17;103229.63;7363708;19;19918;-63
2022/01/22 04:37:30;;;;;;;;;;;;;;;7.39;68.12;103234.84;7356234;19;19922;-62
2022/01/22 04:39:55;;;;;;;;;;;;;;;7.39;68.28;103234.84;7363846;19;19911;-63
2022/01/22 04:42:20;;;;;;;;;;;;;;;7.40;67.79;103240.94;7363666;19;20672;-63
2022/01/22 04:45:16;;;;;;;;;;;;;;;7.40;68.17;103246.13;7361023;19;19911;-62
2022/01/22 04:54:59;;;;;;;;;;;;;;;7.43;67.96;103246.25;7362776;19;19933;-62
2022/01/22 04:55:29;;;;;;;;;;;;;;;7.42;68.31;103244.47;7366114;19;20263;-62
2022/01/22 04:57:55;;;;;;;;;;;;;;;7.43;68.27;103247.13;7366350;19;19972;-63
2022/01/22 05:00:20;;;;;;;;;;;;;;;7.43;68.22;103252.31;7364083;19;19930;-63
2022/01/22 05:02:45;;;;;;;;;;;;;;;7.43;68.09;103251.44;7366194;19;19936;-62
2022/01/22 05:05:11;;;;;;;;;;;;;;;7.43;68.17;103247.13;7362745;19;19978;-63
2022/01/22 05:07:36;;;;;;;;;;;;;;;7.43;68.18;103249.72;7366105;19;19922;-62
2022/01/22 05:10:02;;;;;;;;;;;;;;;7.44;67.92;103248.88;7355770;19;19915;-62
2022/01/22 05:12:27;;;;;;;;;;;;;;;7.43;68.49;103244.53;7364806;19;19919;-62
2022/01/22 05:14:53;;;;;;;;;;;;;;;7.43;68.60;103238.44;7363762;19;19927;-62
2022/01/22 05:17:19;;;;;;;;;;;;;;;7.43;68.46;103241.03;7363966;19;19935;-63
2022/01/22 05:19:51;;;;;;;;;;;;;;;7.42;68.34;103253.16;7364618;19;20371;-62
2022/01/22 05:24:49;;;;;;;;;;;;;;;7.42;68.38;103242.75;7373518;19;20247;-63
2022/01/22 05:32:48;;;;;;;;;;;;;;;7.42;68.62;103234.97;7364842;19;19919;-62
2022/01/22 05:37:57;;;;;;;;;;;;;;;7.43;68.85;103235.84;7370731;19;19960;-63
2022/01/22 05:40:23;;;;;;;;;;;;;;;7.43;68.59;103239.31;7370183;19;20340;-63
2022/01/22 05:43:00;;;;;;;;;;;;;;;7.39;68.44;103229.66;4995717;19;10001260;-63
2022/01/22 05:45:26;;;;;;;;;;;;;;;7.44;68.67;103235.88;4012096;19;10002005;-63
2022/01/22 05:47:51;;;;;;;;;;;;;;;7.45;68.63;103240.28;7371364;19;21178;-62
2022/01/22 05:50:33;;;;;;;;;;;;;;;7.44;69.02;103241.06;7364841;19;19928;-62
2022/01/22 05:53:08;;;;;;;;;;;;;;;7.45;68.53;103248.06;7370864;19;19927;-62
2022/01/22 06:00:49;;;;;;;;;;;;;;;7.45;68.75;103235.06;7367596;19;19974;-63
2022/01/22 06:03:14;;;;;;;;;;;;;;;7.45;68.77;103227.28;7368387;19;19922;-62
2022/01/22 06:05:40;;;;;;;;;;;;;;;7.44;69.00;103228.06;7347214;19;19970;-63
2022/01/22 06:08:05;;;;;;;;;;;;;;;7.45;68.96;103227.28;7369719;19;20304;-62
2022/01/22 06:10:33;;;;;;;;;;;;;;;7.45;68.65;103224.66;7364012;19;19939;-63
2022/01/22 06:13:20;;;;;;;;;;;;;;;7.44;68.80;103222.88;7368370;19;19926;-63
2022/01/22 06:15:45;;;;;;;;;;;;;;;7.42;69.17;103228.88;7370103;19;19915;-63
2022/01/22 06:18:10;;;;;;;;;;;;;;;7.42;68.77;103240.16;7370836;19;19925;-63
2022/01/22 06:20:36;;;;;;;;;;;;;;;7.43;69.12;103236.72;7364567;19;19911;-63
2022/01/22 06:23:02;;;;;;;;;;;;;;;7.43;69.05;103230.66;7369263;19;19919;-63
2022/01/22 06:25:27;;;;;;;;;;;;;;;7.44;69.31;103227.19;7368242;19;19922;-62
2022/01/22 06:27:52;;;;;;;;;;;;;;;7.44;69.12;103232.41;7366957;19;19918;-63
2022/01/22 06:30:19;;;;;;;;;;;;;;;7.44;69.39;103232.41;7367568;19;19971;-63
2022/01/22 06:32:44;;;;;;;;;;;;;;;7.44;69.12;103233.28;7368060;19;20344;-63
2022/01/22 06:35:10;;;;;;;;;;;;;;;7.45;69.12;103237.66;7367034;19;19925;-62
2022/01/22 06:37:35;;;;;;;;;;;;;;;7.47;69.12;103238.59;7368676;19;19911;-62
2022/01/22 06:42:32;;;;;;;;;;;;;;;7.48;69.39;103234.25;7370043;19;19914;-63
2022/01/22 06:44:58;;;;;;;;;;;;;;;7.48;69.37;103235.13;7364081;19;19919;-63
2022/01/22 06:47:23;;;;;;;;;;;;;;;7.50;69.11;103242.97;7368663;19;20530;-63
2022/01/22 06:49:48;;;;;;;;;;;;;;;7.50;69.29;103243.91;7366687;19;19925;-63
2022/01/22 06:52:14;;;;;;;;;;;;;;;7.51;69.61;103244.78;7363916;19;20307;-63
2022/01/22 06:54:41;;;;;;;;;;;;;;;7.51;69.26;103245.66;7370361;19;20308;-63
2022/01/22 06:57:06;;;;;;;;;;;;;;;7.53;69.37;103243.09;7367156;19;19930;-63
2022/01/22 06:59:31;;;;;;;;;;;;;;;7.53;69.24;103237.88;7366248;19;20316;-63
2022/01/22 07:01:57;;;;;;;;;;;;;;;7.53;69.51;103243.09;7365787;19;19957;-62
2022/01/22 07:04:22;;;;;;;;;;;;;;;7.52;69.70;103242.22;7369290;19;19914;-63
2022/01/22 07:06:47;;;;;;;;;;;;;;;7.52;69.44;103237.00;7362666;19;19944;-61
2022/01/22 07:09:13;;;;;;;;;;;;;;;7.53;69.59;103233.56;7367034;19;20304;-63
2022/01/22 07:11:38;;;;;;;;;;;;;;;7.53;69.87;103243.09;7366316;19;20026;-62
2022/01/22 07:14:03;;;;;;;;;;;;;;;7.53;69.73;103238.75;7361417;19;19932;-63
2022/01/22 07:16:29;;;;;;;;;;;;;;;7.54;69.73;103231.84;7359831;19;19918;-62
2022/01/22 07:18:59;;;;;;;;;;;;;;;7.56;69.44;103243.19;7357872;19;19919;-63
2022/01/22 07:21:24;;;;;;;;;;;;;;;7.56;69.66;103235.38;7367441;19;19943;-63
2022/01/22 07:26:16;;;;;;;;;;;;;;;7.57;69.90;103228.47;7364805;19;19922;-62
2022/01/22 07:28:41;;;;;;;;;;;;;;;7.59;69.63;103229.38;7363908;19;20345;-62
2022/01/22 07:31:07;;;;;;;;;;;;;;;7.58;69.81;103219.81;7365128;19;19923;-62
2022/01/22 07:33:32;;;;;;;;;;;;;;;7.58;69.98;103214.63;7364692;19;19919;-62
2022/01/22 07:35:57;;;;;;;;;;;;;;;7.59;69.81;103205.97;7367632;19;19982;-62
2022/01/22 07:38:23;;;;;;;;;;;;;;;7.59;69.80;103216.38;7364526;19;20342;-62
2022/01/22 07:40:48;;;;;;;;;;;;;;;7.59;70.01;103205.97;7365083;19;19914;-62
2022/01/22 07:43:16;;;;;;;;;;;;;;;7.59;69.73;103216.38;7365913;19;19990;-63
2022/01/22 07:45:42;;;;;;;;;;;;;;;7.59;70.17;103216.38;7359184;19;19940;-63
2022/01/22 07:48:07;;;;;;;;;;;;;;;7.59;69.88;103221.59;7365173;19;19911;-63
2022/01/22 07:50:32;;;;;;;;;;;;;;;7.60;69.79;103225.94;7364468;19;19915;-62
2022/01/22 07:52:58;;;;;;;;;;;;;;;7.59;70.02;103222.47;7365284;19;19927;-63
2022/01/22 07:55:23;;;;;;;;;;;;;;;7.60;70.16;103228.53;7368428;19;19923;-63
2022/01/22 07:57:49;;;;;;;;;;;;;;;7.60;70.07;103233.75;7355072;19;19939;-62
2022/01/22 08:00:16;;;;;;;;;;;;;;;7.60;69.89;103233.75;7365132;19;19922;-62
2022/01/22 08:02:41;;;;;;;;;;;;;;;7.58;70.27;103227.63;7360767;19;19922;-63
2022/01/22 08:05:07;;;;;;;;;;;;;;;7.60;70.03;103229.41;7363196;19;19931;-62
2022/01/22 08:07:32;;;;;;;;;;;;;;;7.59;70.15;103224.19;7364591;19;19911;-62
2022/01/22 08:09:58;;;;;;;;;;;;;;;7.60;70.18;103223.34;7363113;19;19986;-63
2022/01/22 08:12:23;;;;;;;;;;;;;;;7.61;69.96;103219.94;7366009;19;19915;-63
2022/01/22 08:14:48;;;;;;;;;;;;;;;7.62;70.13;103221.69;7363998;19;20803;-63
2022/01/22 08:17:14;;;;;;;;;;;;;;;7.62;70.02;103226.88;7364148;19;20482;-62
2022/01/22 08:19:39;;;;;;;;;;;;;;;7.63;70.03;103213.03;7365094;19;19930;-63
2022/01/22 08:22:04;;;;;;;;;;;;;;;7.64;70.28;103214.81;7350454;19;21931;-67
2022/01/22 08:24:30;;;;;;;;;;;;;;;7.64;70.17;103209.59;7367544;19;19987;-63
2022/01/22 08:29:39;;;;;;;;;;;;;;;7.65;70.08;103226.97;7362646;19;20315;-63
2022/01/22 08:32:32;;;;;;;;;;;;;;;7.65;70.12;103232.16;7358092;19;20007;-62
2022/01/22 08:37:49;;;;;;;;;;;;;;;7.68;70.26;103240.06;5126720;19;10002031;-63
2022/01/22 08:40:14;;;;;;;;;;;;;;;7.70;70.63;103246.19;7364346;19;20563;-63
2022/01/22 08:42:40;;;;;;;;;;;;;;;7.70;70.42;103246.19;7358583;19;19915;-63
2022/01/22 08:45:05;;;;;;;;;;;;;;;7.71;70.35;103247.97;7359554;19;19922;-62
2022/01/22 08:47:30;;;;;;;;;;;;;;;7.73;70.50;103256.69;7365042;19;19915;-63
2022/01/22 08:49:56;;;;;;;;;;;;;;;7.75;70.37;103257.59;7335253;19;19934;-63
2022/01/22 08:52:25;;;;;;;;;;;;;;;7.76;70.44;103257.69;7364639;19;19922;-62
2022/01/22 08:54:51;;;;;;;;;;;;;;;7.78;70.68;103261.19;7364869;19;19918;-62
2022/01/22 08:57:18;;;;;;;;;;;;;;;7.79;70.63;103268.16;7352153;19;19936;-63
2022/01/22 08:59:43;;;;;;;;;;;;;;;7.80;70.20;103261.22;7367963;19;19918;-63
2022/01/22 09:02:08;;;;;;;;;;;;;;;7.82;70.49;103272.59;7365727;19;19936;-62
2022/01/22 09:04:34;;;;;;;;;;;;;;;7.74;70.30;103254.13;7365524;19;19918;-63
2022/01/22 09:06:59;;;;;;;;;;;;;;;7.85;70.26;103267.44;7369566;19;19911;-62
2022/01/22 09:09:25;;;;;;;;;;;;;;;7.86;70.33;103269.25;7357606;19;20356;-63
2022/01/22 09:11:51;;;;;;;;;;;;;;;7.87;70.31;103271.00;7365716;19;19922;-63
2022/01/22 09:14:17;;;;;;;;;;;;;;;7.89;70.21;103274.50;7357151;19;19935;-62
2022/01/22 09:16:43;;;;;;;;;;;;;;;7.90;70.17;103284.09;7371062;19;19922;-62
2022/01/22 09:19:10;;;;;;;;;;;;;;;7.91;70.21;103280.66;7368203;19;19932;-63
2022/01/22 09:21:38;;;;;;;;;;;;;;;7.93;70.64;103281.59;7365029;19;19918;-62
2022/01/22 09:24:04;;;;;;;;;;;;;;;7.94;70.46;103279.84;7363345;19;19917;-63
2022/01/22 09:26:30;;;;;;;;;;;;;;;7.95;70.67;103274.69;7367147;19;19925;-63
2022/01/22 09:28:57;;;;;;;;;;;;;;;7.97;70.67;103267.84;7370398;19;19923;-62
2022/01/22 09:31:23;;;;;;;;;;;;;;;7.99;70.62;103263.53;7359722;19;19923;-62
2022/01/22 09:33:48;;;;;;;;;;;;;;;8.02;70.54;103265.38;7371029;19;19926;-62
2022/01/22 09:36:14;;;;;;;;;;;;;;;8.03;70.40;103262.78;7365825;19;19922;-63
2022/01/22 09:38:39;;;;;;;;;;;;;;;8.06;70.94;103275.91;7363578;19;19927;-63
2022/01/22 09:41:05;;;;;;;;;;;;;;;8.07;70.68;103269.88;7365786;19;20340;-62
2022/01/22 09:43:31;;;;;;;;;;;;;;;8.10;70.84;103268.16;7369699;19;19919;-63
2022/01/22 09:45:57;;;;;;;;;;;;;;;8.10;70.57;103263.84;7365877;19;19994;-62
2022/01/22 09:48:22;;;;;;;;;;;;;;;8.12;70.38;103261.31;7314999;19;20806;-62
2022/01/22 09:50:48;;;;;;;;;;;;;;;8.13;70.50;103260.47;7369232;19;19922;-63
2022/01/22 09:53:13;;;;;;;;;;;;;;;8.18;70.68;103261.47;7360989;19;19971;-63
2022/01/22 09:55:38;;;;;;;;;;;;;;;8.26;71.03;103257.34;7367252;19;19919;-63
2022/01/22 09:58:03;;;;;;;;;;;;;;;8.39;71.47;103251.69;7324248;19;20002;-62
2022/01/22 10:00:29;;;;;;;;;;;;;;;8.56;71.54;103253.00;7301196;19;19919;-62
2022/01/22 10:02:55;;;;;;;;;;;;;;;8.72;71.60;103251.72;7365787;19;19949;-63
2022/01/22 10:05:30;;;;;;;;;;;;;;;8.84;71.18;103252.00;7352626;19;19926;-64
2022/01/22 10:08:15;;;;;;;;;;;;;;;8.91;70.80;103253.03;7341094;19;19926;-63
2022/01/22 10:10:41;;;;;;;;;;;;;;;8.92;70.74;103260.03;7321410;19;19929;-63
2022/01/22 10:13:06;;;;;;;;;;;;;;;8.94;70.61;103262.66;7365587;19;19930;-63
2022/01/22 10:15:35;;;;;;;;;;;;;;;8.92;70.49;103249.63;7366903;19;19923;-62
2022/01/22 10:18:00;;;;;;;;;;;;;;;8.93;70.62;103260.91;7337529;19;19927;-63
2022/01/22 10:20:32;;;;;;;;;;;;;;;8.90;70.64;103264.31;7355226;19;19944;-63
2022/01/22 10:22:59;;;;;;;;;;;;;;;8.88;70.32;103258.19;7365251;19;19918;-62
2022/01/22 10:25:33;;;;;;;;;;;;;;;8.88;70.85;103258.19;7363623;19;19926;-63
2022/01/22 10:28:10;;;;;;;;;;;;;;;8.87;70.40;103264.25;7358685;19;19927;-62
2022/01/22 10:30:41;;;;;;;;;;;;;;;8.88;70.79;103265.13;7366107;19;20370;-63
2022/01/22 10:35:47;;;;;;;;;;;;;;;8.91;71.18;103253.03;3249645;19;10001891;-63
2022/01/22 10:38:13;;;;;;;;;;;;;;;8.98;70.88;103264.53;7366830;19;19927;-63
2022/01/22 10:40:40;;;;;;;;;;;;;;;9.06;71.02;103262.97;7363675;19;19935;-62
2022/01/22 10:43:35;;;;;;;;;;;;;;;9.08;70.88;103256.97;7367222;19;19952;-62
2022/01/22 10:46:31;;;;;;;;;;;;;;;9.13;70.90;103269.22;7262478;19;2004543;-63
2022/01/22 10:48:54;;;;;;;;;;;;;;;9.16;70.69;103264.06;7359344;19;19934;-62
2022/01/22 10:51:20;;;;;;;;;;;;;;;9.19;70.99;103258.94;7341415;19;19919;-62
2022/01/22 10:53:51;;;;;;;;;;;;;;;9.23;70.98;103260.78;7321524;19;19925;-63
2022/01/22 10:56:19;;;;;;;;;;;;;;;9.25;70.62;103261.69;7363350;19;19922;-63
2022/01/22 10:58:53;;;;;;;;;;;;;;;9.27;70.67;103258.25;7353447;19;19917;-62
2022/01/22 11:01:19;;;;;;;;;;;;;;;9.30;70.46;103258.34;7356904;19;19990;-62
2022/01/22 11:03:44;;;;;;;;;;;;;;;9.33;70.77;103252.34;7360683;19;19935;-63
2022/01/22 11:06:24;;;;;;;;;;;;;;;9.36;70.70;103258.47;7362309;19;20380;-63
2022/01/22 11:08:49;;;;;;;;;;;;;;;9.40;70.92;103254.22;7359301;19;19914;-63
2022/01/22 11:11:14;;;;;;;;;;;;;;;9.48;71.01;103260.50;7340034;19;19939;-63
2022/01/22 11:13:39;;;;;;;;;;;;;;;9.57;71.20;103257.22;7358820;19;20013;-62
2022/01/22 11:16:05;;;;;;;;;;;;;;;9.62;70.83;103256.47;7359507;19;19915;-62
2022/01/22 11:18:31;;;;;;;;;;;;;;;9.65;70.66;103260.88;7342349;19;19970;-63
2022/01/22 11:20:56;;;;;;;;;;;;;;;9.68;70.35;103263.56;7351277;19;20290;-62
2022/01/22 11:23:22;;;;;;;;;;;;;;;9.68;70.26;103250.53;7356415;19;19922;-63
2022/01/22 11:25:47;;;;;;;;;;;;;;;9.68;70.72;103244.41;7333514;19;20699;-62
2022/01/22 11:28:13;;;;;;;;;;;;;;;9.69;70.51;103257.50;7331011;19;20691;-63
2022/01/22 11:30:38;;;;;;;;;;;;;;;9.70;70.40;103253.16;7357129;19;19915;-63
2022/01/22 11:33:08;;;;;;;;;;;;;;;9.73;70.62;103250.59;7333537;19;19922;-63
2022/01/22 11:35:42;;;;;;;;;;;;;;;9.78;70.76;103247.28;7332039;19;19986;-62
2022/01/22 11:38:10;;;;;;;;;;;;;;;9.84;70.61;103246.50;7335664;19;19978;-62
2022/01/22 11:40:35;;;;;;;;;;;;;;;9.86;70.70;103244.81;7338834;19;20328;-62
2022/01/22 11:45:31;;;;;;;;;;;;;;;9.85;70.40;103237.84;7323905;19;20450;-63
2022/01/22 11:48:08;;;;;;;;;;;;;;;9.85;70.46;103237.84;7294855;19;19918;-62
2022/01/22 11:50:34;;;;;;;;;;;;;;;9.88;70.66;103240.47;7354155;19;19915;-63
2022/01/22 11:53:19;;;;;;;;;;;;;;;9.91;70.70;103239.69;7335977;19;20272;-62
2022/01/22 11:56:04;;;;;;;;;;;;;;;9.82;70.58;103232.53;7359567;19;19922;-62
2022/01/22 11:58:29;;;;;;;;;;;;;;;9.98;70.46;103244.16;7334468;19;19919;-62
2022/01/22 12:00:55;;;;;;;;;;;;;;;9.98;70.22;103250.25;7335185;19;19937;-63
2022/01/22 12:03:20;;;;;;;;;;;;;;;9.98;70.27;103245.03;7362978;19;19935;-65
2022/01/22 12:05:55;;;;;;;;;;;;;;;9.97;70.01;103245.91;7362490;19;20395;-62
2022/01/22 12:08:23;;;;;;;;;;;;;;;9.94;70.41;103251.06;7330056;19;19915;-63
2022/01/22 12:16:09;;;;;;;;;;;;;;;9.95;70.44;103242.38;7356177;19;19926;-62
2022/01/22 12:18:39;;;;;;;;;;;;;;;9.93;70.19;103257.13;7352898;19;19946;-63
2022/01/22 12:23:32;;;;;;;;;;;;;;;9.92;70.18;103250.16;7333533;19;19990;-63
2022/01/22 12:25:59;;;;;;;;;;;;;;;9.91;70.06;103242.28;7359297;19;20316;-63
2022/01/22 12:28:35;;;;;;;;;;;;;;;9.87;70.35;103241.34;7334592;19;19926;-62
2022/01/22 12:31:01;;;;;;;;;;;;;;;9.85;70.23;103243.03;7350923;19;19927;-62
2022/01/22 12:33:30;;;;;;;;;;;;;;;9.84;70.29;103236.94;7358522;19;20462;-62
2022/01/22 12:35:59;;;;;;;;;;;;;;;9.84;70.49;103236.06;7325991;19;19931;-62
2022/01/22 12:38:37;;;;;;;;;;;;;;;9.83;70.58;103239.50;7360574;19;19907;-63
2022/01/22 12:41:46;;;;;;;;;;;;;;;9.71;70.52;103223.59;5458639;19;10020994;-63
2022/01/22 12:44:15;;;;;;;;;;;;;;;9.82;70.50;103245.56;5479331;19;10001643;-63
2022/01/22 12:46:41;;;;;;;;;;;;;;;9.80;70.54;103239.47;7365111;19;20022;-63
2022/01/22 12:49:07;;;;;;;;;;;;;;;9.80;70.21;103239.47;7365829;19;19978;-63
2022/01/22 12:51:33;;;;;;;;;;;;;;;9.81;70.38;103236.00;7354867;19;19919;-63
2022/01/22 12:53:59;;;;;;;;;;;;;;;9.80;70.49;103221.19;7362748;19;20285;-63
2022/01/22 12:59:07;;;;;;;;;;;;;;;9.86;70.46;103239.59;7364275;19;19926;-62
2022/01/22 13:01:34;;;;;;;;;;;;;;;9.86;70.64;103234.38;7361256;19;19914;-62
2022/01/22 13:04:04;;;;;;;;;;;;;;;9.88;70.67;103243.09;7365637;19;19911;-63
2022/01/22 13:06:45;;;;;;;;;;;;;;;9.91;70.47;103242.28;7345083;19;19941;-62
2022/01/22 13:09:11;;;;;;;;;;;;;;;9.91;70.72;103232.72;7334880;19;19914;-63
2022/01/22 13:11:45;;;;;;;;;;;;;;;9.93;70.60;103228.41;7339308;19;20774;-63
2022/01/22 13:14:10;;;;;;;;;;;;;;;9.95;70.30;103234.56;7363194;19;19917;-63
2022/01/22 13:16:44;;;;;;;;;;;;;;;9.96;70.49;103231.09;7363038;19;19923;-62
2022/01/22 13:19:10;;;;;;;;;;;;;;;9.97;70.48;103226.75;7358751;19;19915;-63
2022/01/22 13:21:35;;;;;;;;;;;;;;;9.99;70.40;103222.47;7353158;19;19920;-62
2022/01/22 13:24:05;;;;;;;;;;;;;;;10.00;70.13;103221.59;7343975;19;19931;-63
2022/01/22 13:27:00;;;;;;;;;;;;;;;10.02;70.04;103214.66;7342389;19;20375;-63
2022/01/22 13:29:34;;;;;;;;;;;;;;;10.02;70.13;103214.66;7268741;19;2004184;-63
2022/01/22 13:32:07;;;;;;;;;;;;;;;10.02;70.15;103218.16;7367177;19;19918;-63
2022/01/22 13:34:50;;;;;;;;;;;;;;;10.02;70.28;103219.88;7366365;19;19948;-63
2022/01/22 13:38:03;;;;;;;;;;;;;;;10.02;70.21;103210.31;7344220;19;19943;-63
2022/01/22 13:40:19;;;;;;;;;;;;;;;10.00;70.25;103206.81;7319676;19;19940;-64
2022/01/22 13:48:33;;;;;;;;;;;;;;;9.99;70.35;103197.22;7345285;19;19922;-63
2022/01/22 13:50:59;;;;;;;;;;;;;;;9.99;69.73;103196.34;7336226;19;19943;-63
2022/01/22 13:53:24;;;;;;;;;;;;;;;10.00;70.14;103187.66;7340124;19;20262;-63
2022/01/22 13:55:56;;;;;;;;;;;;;;;9.98;70.08;103185.00;7367333;19;20540;-62
2022/01/22 13:58:21;;;;;;;;;;;;;;;9.98;70.23;103176.31;7362464;19;19915;-63
2022/01/22 14:00:46;;;;;;;;;;;;;;;9.98;70.10;103177.19;7357922;19;19935;-63
2022/01/22 14:05:53;;;;;;;;;;;;;;;9.97;69.86;103175.41;7367534;19;19939;-63
2022/01/22 14:08:29;;;;;;;;;;;;;;;9.96;69.87;103171.06;7365532;19;19915;-63
2022/01/22 14:11:04;;;;;;;;;;;;;;;9.95;69.65;103169.31;7363254;19;19938;-63
2022/01/22 14:13:30;;;;;;;;;;;;;;;9.94;70.03;103159.72;7360983;19;19919;-63
2022/01/22 14:15:55;;;;;;;;;;;;;;;9.92;70.13;103156.19;7362724;19;19936;-62
2022/01/22 14:18:27;;;;;;;;;;;;;;;9.92;69.87;103150.97;7365521;19;19919;-63
2022/01/22 14:21:07;;;;;;;;;;;;;;;9.92;70.08;103153.56;7354504;19;19989;-63
2022/01/22 14:23:33;;;;;;;;;;;;;;;9.93;70.08;103147.50;7350424;19;19919;-63
2022/01/22 14:26:01;;;;;;;;;;;;;;;9.93;69.80;103144.88;7351542;19;19953;-63
2022/01/22 14:28:38;;;;;;;;;;;;;;;9.92;69.80;103144.88;7367182;19;19974;-63
2022/01/22 14:31:22;;;;;;;;;;;;;;;9.92;69.93;103140.53;7369086;19;19926;-63
2022/01/22 14:33:47;;;;;;;;;;;;;;;9.91;70.17;103132.69;7364003;19;19986;-62
2022/01/22 14:36:17;;;;;;;;;;;;;;;9.92;69.72;103142.25;7365250;19;20305;-63
2022/01/22 14:39:11;;;;;;;;;;;;;;;9.85;69.72;103133.44;4665267;19;10001184;-62
2022/01/22 14:44:32;;;;;;;;;;;;;;;9.91;69.74;103138.78;7356558;19;19943;-62
2022/01/22 14:47:03;;;;;;;;;;;;;;;9.90;69.64;103131.78;7360673;19;20412;-63
2022/01/22 14:49:39;;;;;;;;;;;;;;;9.89;70.02;103130.03;7358982;19;19913;-63
2022/01/22 14:52:04;;;;;;;;;;;;;;;9.88;70.02;103129.16;7360648;19;19935;-62
2022/01/22 14:54:34;;;;;;;;;;;;;;;9.90;69.70;103128.31;7363348;19;19915;-63
2022/01/22 14:57:00;;;;;;;;;;;;;;;9.88;69.86;103123.94;7363395;19;19933;-63